Time;durP1;ratioP1;P1;durP2;ratioP2;P2;SDS_P1;SDS_P2;PMS_P1;PMS_P2;Temp;Humidity;BMP_temperature;BMP_pressure;BME280_temperature;BME280_humidity;BME280_pressure;Samples;Min_cycle;Max_cycle;Signal;HPM_P1;HPM_P2
2021/07/21 00:00:55;;;;;;;3.93;1.70;;;16.60;98.00;;;;;;5091847;28;20548;-68
2021/07/21 00:03:23;;;;;;;2.80;1.57;;;16.40;98.00;;;;;;5091810;28;20499;-68
2021/07/21 00:05:51;;;;;;;2.80;1.20;;;16.40;98.00;;;;;;5090439;28;20455;-68
2021/07/21 00:08:18;;;;;;;1.70;1.40;;;16.40;98.00;;;;;;5091887;28;20501;-69
2021/07/21 00:10:49;;;;;;;2.07;1.20;;;16.30;98.00;;;;;;5091747;28;20488;-69
2021/07/21 00:13:27;;;;;;;1.97;1.30;;;16.30;98.00;;;;;;5090908;28;20452;-68
2021/07/21 00:16:09;;;;;;;2.03;1.37;;;16.20;98.00;;;;;;5091634;28;20497;-68
2021/07/21 00:18:46;;;;;;;2.00;1.80;;;16.10;98.00;;;;;;5090928;28;20456;-68
2021/07/21 00:21:15;;;;;;;1.87;1.40;;;16.20;98.00;;;;;;5091632;28;20488;-68
2021/07/21 00:23:42;;;;;;;1.50;1.30;;;16.20;98.00;;;;;;5091499;28;20459;-68
2021/07/21 00:26:11;;;;;;;1.33;1.13;;;16.20;98.00;;;;;;5091535;28;20895;-68
2021/07/21 00:28:41;;;;;;;1.90;1.47;;;16.10;98.00;;;;;;5091420;28;20460;-69
2021/07/21 00:31:10;;;;;;;1.60;1.40;;;16.00;98.00;;;;;;5091604;28;20452;-68
2021/07/21 00:33:37;;;;;;;1.60;1.30;;;15.90;98.00;;;;;;5091479;28;20459;-69
2021/07/21 00:36:05;;;;;;;1.70;1.50;;;16.00;98.00;;;;;;5091524;28;20467;-68
2021/07/21 00:38:32;;;;;;;3.10;1.60;;;16.20;98.00;;;;;;5091688;28;20513;-69
2021/07/21 00:40:59;;;;;;;2.20;1.60;;;16.20;98.00;;;;;;5091447;28;20522;-69
2021/07/21 00:43:28;;;;;;;1.77;1.33;;;15.90;98.00;;;;;;5091180;28;20596;-68
2021/07/21 00:45:55;;;;;;;2.30;1.47;;;15.80;98.00;;;;;;5090073;28;20805;-69
2021/07/21 00:48:23;;;;;;;1.40;1.37;;;15.80;98.00;;;;;;5091697;28;20459;-68
2021/07/21 00:50:54;;;;;;;1.27;1.20;;;15.80;98.00;;;;;;5091406;28;20494;-68
2021/07/21 00:53:21;;;;;;;1.27;1.23;;;15.90;98.00;;;;;;5092612;28;20454;-69
2021/07/21 00:55:48;;;;;;;2.17;1.40;;;15.80;98.00;;;;;;5095496;28;20483;-68
2021/07/21 00:58:16;;;;;;;1.20;1.13;;;15.70;98.00;;;;;;5095589;28;20459;-69
2021/07/21 01:00:43;;;;;;;1.93;1.30;;;15.70;98.00;;;;;;5095268;28;20481;-68
2021/07/21 01:03:11;;;;;;;2.70;1.50;;;15.70;98.00;;;;;;5095210;28;20495;-68
2021/07/21 01:05:42;;;;;;;2.17;1.20;;;15.70;98.00;;;;;;5095227;28;20512;-68
2021/07/21 01:08:12;;;;;;;9.90;1.40;;;15.50;98.00;;;;;;5094920;28;20587;-68
2021/07/21 01:10:42;;;;;;;1.30;1.20;;;15.40;98.00;;;;;;5095031;28;20479;-68
2021/07/21 01:13:18;;;;;;;3.73;1.50;;;15.40;98.00;;;;;;5077473;28;20456;-68
2021/07/21 01:16:02;;;;;;;1.63;1.40;;;15.40;98.00;;;;;;5094576;28;20483;-68
2021/07/21 01:18:36;;;;;;;2.23;1.40;;;15.40;98.00;;;;;;5094170;28;20447;-68
2021/07/21 01:21:34;;;;;;;2.17;1.30;;;15.50;98.00;;;;;;5094767;28;20525;-69
2021/07/21 01:24:26;;;;;;;2.43;1.70;;;15.50;98.00;;;;;;5094663;28;20718;-68
2021/07/21 01:27:21;;;;;;;1.30;1.20;;;15.40;98.00;;;;;;5093455;28;20868;-68
2021/07/21 01:29:52;;;;;;;2.00;1.70;;;15.50;98.00;;;;;;5094479;28;20447;-69
2021/07/21 01:32:21;;;;;;;1.93;1.43;;;15.50;98.00;;;;;;5094326;28;20455;-67
2021/07/21 01:34:51;;;;;;;2.63;1.70;;;15.30;98.00;;;;;;5094594;28;20444;-69
2021/07/21 01:37:18;;;;;;;1.93;1.53;;;15.20;98.00;;;;;;5093477;28;20460;-69
2021/07/21 01:39:51;;;;;;;1.57;1.40;;;15.20;98.00;;;;;;5094181;28;20485;-68
2021/07/21 01:42:20;;;;;;;1.97;1.20;;;15.30;98.00;;;;;;5094387;28;20484;-67
2021/07/21 01:44:50;;;;;;;1.30;1.17;;;15.30;98.00;;;;;;5094194;28;20942;-68
2021/07/21 01:47:22;;;;;;;2.37;1.60;;;15.30;98.00;;;;;;5094189;28;20934;-68
2021/07/21 01:49:52;;;;;;;1.40;1.30;;;15.30;98.00;;;;;;5094246;28;20462;-68
2021/07/21 01:52:27;;;;;;;1.20;1.10;;;15.20;98.00;;;;;;5094080;28;20799;-68
2021/07/21 01:54:57;;;;;;;1.40;1.30;;;15.10;98.00;;;;;;5094423;28;20491;-68
2021/07/21 01:57:28;;;;;;;1.80;1.50;;;15.10;98.00;;;;;;5094170;28;20489;-68
2021/07/21 01:59:56;;;;;;;1.60;1.60;;;15.00;98.00;;;;;;5094070;28;20836;-68
2021/07/21 02:02:24;;;;;;;3.27;1.97;;;15.00;98.00;;;;;;5094033;28;20862;-69
2021/07/21 02:04:52;;;;;;;3.00;1.80;;;15.00;98.00;;;;;;5094121;28;20460;-68
2021/07/21 02:07:21;;;;;;;2.53;1.73;;;15.00;98.00;;;;;;5094069;28;20455;-69
2021/07/21 02:09:49;;;;;;;1.90;1.30;;;14.90;98.00;;;;;;5093942;28;20487;-67
2021/07/21 02:12:16;;;;;;;1.73;1.20;;;14.90;98.00;;;;;;5094007;28;20452;-68
2021/07/21 02:14:47;;;;;;;1.40;1.33;;;14.90;98.00;;;;;;5092972;28;20884;-69
2021/07/21 02:17:15;;;;;;;1.80;1.17;;;15.10;98.00;;;;;;5093777;28;20509;-67
2021/07/21 02:19:45;;;;;;;2.60;1.60;;;15.00;98.00;;;;;;5094058;28;20520;-69
2021/07/21 02:22:15;;;;;;;1.83;1.20;;;15.00;98.00;;;;;;5093628;28;20484;-68
2021/07/21 02:24:44;;;;;;;1.30;1.20;;;14.90;98.00;;;;;;5092550;28;20517;-67
2021/07/21 02:27:12;;;;;;;2.07;1.40;;;14.70;98.00;;;;;;5093556;28;20545;-67
2021/07/21 02:29:41;;;;;;;1.90;1.43;;;14.80;98.00;;;;;;5093427;28;20454;-68
2021/07/21 02:32:14;;;;;;;2.70;1.70;;;14.80;98.00;;;;;;5093345;28;20881;-69
2021/07/21 02:34:44;;;;;;;1.87;1.40;;;14.60;98.00;;;;;;5093234;28;20459;-68
2021/07/21 02:37:15;;;;;;;1.97;1.53;;;14.70;98.00;;;;;;5093079;28;20466;-68
2021/07/21 02:39:43;;;;;;;1.77;1.27;;;14.80;98.00;;;;;;5093322;28;20501;-69
2021/07/21 02:42:11;;;;;;;1.90;1.60;;;14.80;98.00;;;;;;5093095;28;20875;-68
2021/07/21 02:44:38;;;;;;;4.07;1.33;;;14.80;98.00;;;;;;5093063;28;20486;-69
2021/07/21 02:47:06;;;;;;;1.63;1.30;;;14.60;98.00;;;;;;5093023;28;20522;-68
2021/07/21 02:49:34;;;;;;;2.23;1.43;;;14.60;98.00;;;;;;5093107;28;20516;-68
2021/07/21 02:52:10;;;;;;;1.60;1.13;;;14.50;98.00;;;;;;5092931;28;20495;-68
2021/07/21 02:54:44;;;;;;;1.40;1.20;;;14.50;98.00;;;;;;5092925;28;20893;-68
2021/07/21 02:57:16;;;;;;;1.23;1.10;;;14.50;98.00;;;;;;5092802;28;20462;-68
2021/07/21 02:59:46;;;;;;;1.47;1.20;;;14.50;98.00;;;;;;5092774;28;20515;-67
2021/07/21 03:02:19;;;;;;;2.57;1.23;;;14.40;98.00;;;;;;5092723;28;20479;-69
2021/07/21 03:04:51;;;;;;;1.50;1.40;;;14.50;98.00;;;;;;5092313;28;20495;-68
2021/07/21 03:07:21;;;;;;;2.80;1.60;;;14.60;98.00;;;;;;5092711;28;20460;-69
2021/07/21 03:09:49;;;;;;;2.57;1.43;;;14.50;98.00;;;;;;5092717;28;20513;-67
2021/07/21 03:12:18;;;;;;;2.97;1.87;;;14.50;98.00;;;;;;5092679;28;20452;-68
2021/07/21 03:14:46;;;;;;;2.37;1.40;;;14.40;98.00;;;;;;5092686;28;20456;-68
2021/07/21 03:17:14;;;;;;;1.30;1.17;;;14.50;98.00;;;;;;5092320;28;20527;-68
2021/07/21 03:19:45;;;;;;;1.33;1.20;;;14.40;98.00;;;;;;5092585;28;20491;-69
2021/07/21 03:22:16;;;;;;;1.70;1.43;;;14.40;98.00;;;;;;5092800;28;20494;-69
2021/07/21 03:24:43;;;;;;;2.73;1.60;;;14.60;98.00;;;;;;5092626;28;20491;-68
2021/07/21 03:27:11;;;;;;;2.23;1.27;;;14.50;98.00;;;;;;5092371;28;20464;-68
2021/07/21 03:29:39;;;;;;;1.47;1.30;;;14.60;98.00;;;;;;5092668;28;21031;-68
2021/07/21 03:32:08;;;;;;;2.03;1.33;;;14.70;98.00;;;;;;5092715;28;20509;-68
2021/07/21 03:34:37;;;;;;;1.77;1.30;;;14.60;98.00;;;;;;5092603;28;20467;-67
2021/07/21 03:37:05;;;;;;;1.53;1.37;;;14.50;98.00;;;;;;5092427;28;20460;-67
2021/07/21 03:39:34;;;;;;;1.40;1.33;;;14.50;98.00;;;;;;5091428;28;20455;-69
2021/07/21 03:42:02;;;;;;;2.63;1.30;;;14.40;98.00;;;;;;5092221;28;20851;-68
2021/07/21 03:44:30;;;;;;;1.70;1.70;;;14.30;98.00;;;;;;5092243;28;20491;-68
2021/07/21 03:46:58;;;;;;;1.43;1.20;;;14.40;98.00;;;;;;5092126;28;20964;-68
2021/07/21 03:49:27;;;;;;;1.30;1.23;;;14.50;98.00;;;;;;5092071;28;20530;-68
2021/07/21 03:51:58;;;;;;;2.73;2.00;;;14.50;98.00;;;;;;5092056;28;20454;-68
2021/07/21 03:54:27;;;;;;;2.50;1.33;;;14.50;98.00;;;;;;5091637;28;20505;-68
2021/07/21 03:57:05;;;;;;;2.07;1.50;;;14.50;98.00;;;;;;5091774;28;20480;-68
2021/07/21 03:59:33;;;;;;;1.30;1.10;;;14.50;98.00;;;;;;5092076;28;20499;-68
2021/07/21 04:02:01;;;;;;;1.30;1.20;;;14.40;98.00;;;;;;5091666;28;21073;-69
2021/07/21 04:04:28;;;;;;;2.70;1.47;;;14.40;98.00;;;;;;5091826;28;20844;-67
2021/07/21 04:06:57;;;;;;;1.63;1.57;;;14.50;98.00;;;;;;5091828;28;20463;-69
2021/07/21 04:09:26;;;;;;;2.43;1.37;;;14.70;98.00;;;;;;5091857;28;20454;-68
2021/07/21 04:11:57;;;;;;;1.83;1.37;;;14.60;98.00;;;;;;5091636;28;20454;-69
2021/07/21 04:14:25;;;;;;;3.63;1.70;;;14.60;98.00;;;;;;5091831;28;20459;-67
2021/07/21 04:16:53;;;;;;;1.93;1.10;;;14.50;98.00;;;;;;5091623;28;20456;-69
2021/07/21 04:19:22;;;;;;;2.70;1.70;;;14.50;98.00;;;;;;5090781;28;20520;-68
2021/07/21 04:21:51;;;;;;;1.90;1.23;;;14.50;98.00;;;;;;5090471;28;21153;-68
2021/07/21 04:24:22;;;;;;;1.97;1.47;;;14.60;98.00;;;;;;5091879;28;20458;-68
2021/07/21 04:26:51;;;;;;;2.27;1.67;;;14.60;98.00;;;;;;5091592;28;20463;-68
2021/07/21 04:29:21;;;;;;;1.83;1.40;;;14.50;98.00;;;;;;5094250;28;20450;-67
2021/07/21 04:31:50;;;;;;;1.50;1.50;;;14.50;98.00;;;;;;5095767;28;20456;-67
2021/07/21 04:34:19;;;;;;;1.30;1.10;;;14.40;98.00;;;;;;5095978;28;20487;-68
2021/07/21 04:36:47;;;;;;;2.37;1.67;;;14.40;98.00;;;;;;5095793;28;20792;-68
2021/07/21 04:39:18;;;;;;;3.00;1.43;;;14.30;98.00;;;;;;5095583;28;20448;-69
2021/07/21 04:41:45;;;;;;;1.20;1.03;;;14.50;98.00;;;;;;5095519;28;20455;-68
2021/07/21 04:44:13;;;;;;;1.27;1.13;;;14.60;98.00;;;;;;5095767;28;20462;-68
2021/07/21 04:46:44;;;;;;;2.13;1.57;;;14.70;98.00;;;;;;5095609;28;20451;-68
2021/07/21 04:49:11;;;;;;;3.40;1.50;;;14.60;98.00;;;;;;5095623;28;20917;-68
2021/07/21 04:51:39;;;;;;;1.67;1.23;;;14.40;98.00;;;;;;5095620;28;20463;-68
2021/07/21 04:54:07;;;;;;;1.30;1.20;;;14.40;98.00;;;;;;5095809;28;20535;-69
2021/07/21 04:56:35;;;;;;;1.73;1.30;;;14.50;98.00;;;;;;5095446;28;20448;-68
2021/07/21 04:59:02;;;;;;;2.17;1.50;;;14.70;98.00;;;;;;5095618;28;20486;-68
2021/07/21 05:01:30;;;;;;;1.20;1.10;;;14.80;98.00;;;;;;5094157;28;20455;-68
2021/07/21 05:04:03;;;;;;;2.47;1.77;;;14.80;98.00;;;;;;5095422;28;20487;-68
2021/07/21 05:06:31;;;;;;;1.50;1.40;;;14.70;98.00;;;;;;5094754;28;20954;-69
2021/07/21 05:08:58;;;;;;;2.47;1.40;;;14.70;98.00;;;;;;5095188;28;20914;-67
2021/07/21 05:11:26;;;;;;;1.90;1.50;;;14.80;98.00;;;;;;5094815;28;20463;-68
2021/07/21 05:13:54;;;;;;;1.30;1.20;;;14.90;98.00;;;;;;5093749;28;20974;-68
2021/07/21 05:16:21;;;;;;;1.57;1.30;;;15.00;98.00;;;;;;5093582;28;20480;-68
2021/07/21 05:18:48;;;;;;;1.67;1.30;;;15.10;98.00;;;;;;5094713;28;20495;-68
2021/07/21 05:21:16;;;;;;;1.30;1.30;;;15.20;98.00;;;;;;5094671;28;20480;-68
2021/07/21 05:23:43;;;;;;;1.30;1.13;;;15.40;98.00;;;;;;5094528;28;20493;-69
2021/07/21 05:26:15;;;;;;;1.97;1.20;;;15.50;98.00;;;;;;5094474;28;20498;-68
2021/07/21 05:28:43;;;;;;;2.37;1.47;;;15.60;98.00;;;;;;5094645;28;20571;-68
2021/07/21 05:31:11;;;;;;;3.73;1.40;;;15.70;98.00;;;;;;5094472;28;20495;-68
2021/07/21 05:33:38;;;;;;;1.60;1.40;;;15.80;98.00;;;;;;5093358;28;20521;-69
2021/07/21 05:36:06;;;;;;;2.87;1.33;;;15.80;98.00;;;;;;5094655;28;20459;-68
2021/07/21 05:38:34;;;;;;;1.80;1.60;;;15.80;98.00;;;;;;5094670;28;20530;-69
2021/07/21 05:41:01;;;;;;;3.30;1.60;;;15.90;98.00;;;;;;5094154;28;20491;-68
2021/07/21 05:43:29;;;;;;;1.70;1.33;;;15.90;98.00;;;;;;5094398;28;20642;-68
2021/07/21 05:45:56;;;;;;;1.50;1.40;;;15.90;98.00;;;;;;5094622;28;20966;-68
2021/07/21 05:48:23;;;;;;;2.47;1.60;;;16.00;98.00;;;;;;5094548;28;20541;-67
2021/07/21 05:50:51;;;;;;;1.63;1.30;;;16.10;98.00;;;;;;5093186;28;20529;-68
2021/07/21 05:53:20;;;;;;;1.50;1.30;;;16.10;98.00;;;;;;5094261;28;20451;-67
2021/07/21 05:55:49;;;;;;;2.03;1.20;;;16.20;98.00;;;;;;5093562;28;20495;-68
2021/07/21 05:58:17;;;;;;;1.30;1.20;;;16.20;98.00;;;;;;5094148;28;20506;-67
2021/07/21 06:00:44;;;;;;;2.40;1.60;;;16.20;98.00;;;;;;5093706;28;20452;-68
2021/07/21 06:03:12;;;;;;;1.80;1.43;;;16.20;98.00;;;;;;5094002;28;20907;-68
2021/07/21 06:05:39;;;;;;;2.87;2.07;;;16.30;98.00;;;;;;5094141;28;20491;-69
2021/07/21 06:08:07;;;;;;;1.77;1.33;;;16.50;98.00;;;;;;5094138;28;20460;-69
2021/07/21 06:10:43;;;;;;;2.00;1.70;;;16.50;98.00;;;;;;5094182;28;20456;-68
2021/07/21 06:13:12;;;;;;;2.23;1.93;;;16.50;98.00;;;;;;5094182;28;20534;-68
2021/07/21 06:15:39;;;;;;;2.90;1.47;;;16.70;98.00;;;;;;5094028;28;20448;-69
2021/07/21 06:18:07;;;;;;;1.87;1.30;;;16.80;98.00;;;;;;5093997;28;21042;-68
2021/07/21 06:20:35;;;;;;;1.80;1.20;;;16.90;98.00;;;;;;5094050;28;21008;-68
2021/07/21 06:23:02;;;;;;;1.63;1.20;;;16.90;98.00;;;;;;5093594;28;20519;-68
2021/07/21 06:25:29;;;;;;;2.13;1.67;;;17.00;98.00;;;;;;5093460;28;21154;-67
2021/07/21 06:27:56;;;;;;;1.30;1.10;;;17.10;98.00;;;;;;5092032;28;20864;-70
2021/07/21 06:30:26;;;;;;;1.97;1.67;;;17.20;98.00;;;;;;5092670;28;21050;-68
2021/07/21 06:32:54;;;;;;;1.60;1.43;;;17.30;98.00;;;;;;5092652;28;20596;-68
2021/07/21 06:35:21;;;;;;;2.23;1.40;;;17.40;98.00;;;;;;5092766;28;21022;-68
2021/07/21 06:37:48;;;;;;;1.77;1.60;;;17.50;98.00;;;;;;5093020;28;20456;-69
2021/07/21 06:40:15;;;;;;;1.50;1.50;;;17.60;98.00;;;;;;5093319;28;20513;-68
2021/07/21 06:42:42;;;;;;;1.50;1.30;;;17.60;98.00;;;;;;5093148;28;20689;-68
2021/07/21 06:45:11;;;;;;;2.07;1.30;;;17.70;98.00;;;;;;5093339;28;20484;-68
2021/07/21 06:47:40;;;;;;;2.00;1.50;;;17.70;98.00;;;;;;5093130;28;20457;-68
2021/07/21 06:50:08;;;;;;;2.27;1.80;;;17.70;98.00;;;;;;5092030;28;20479;-68
2021/07/21 06:52:35;;;;;;;2.70;1.53;;;17.70;98.00;;;;;;5092162;28;20448;-68
2021/07/21 06:55:02;;;;;;;1.77;1.70;;;17.70;98.00;;;;;;5092858;28;20520;-68
2021/07/21 06:57:29;;;;;;;1.60;1.50;;;17.80;98.00;;;;;;5093149;28;20483;-67
2021/07/21 06:59:56;;;;;;;1.50;1.40;;;17.90;98.00;;;;;;5092742;28;20833;-67
2021/07/21 07:02:23;;;;;;;2.07;1.50;;;18.00;98.00;;;;;;5092783;28;20501;-69
2021/07/21 07:04:53;;;;;;;1.73;1.67;;;18.00;98.00;;;;;;5092713;28;20460;-68
2021/07/21 07:07:20;;;;;;;3.50;2.40;;;18.10;98.00;;;;;;5093164;28;20456;-68
2021/07/21 07:09:47;;;;;;;1.90;1.67;;;18.30;98.00;;;;;;5090702;28;20549;-68
2021/07/21 07:12:15;;;;;;;2.17;1.67;;;18.50;98.00;;;;;;5090574;28;21015;-67
2021/07/21 07:14:42;;;;;;;1.60;1.53;;;18.50;98.00;;;;;;5097606;28;20498;-67
2021/07/21 07:17:10;;;;;;;2.90;2.17;;;18.60;98.00;;;;;;5101946;28;20506;-67
2021/07/21 07:19:37;;;;;;;2.00;1.60;;;18.70;98.00;;;;;;5100313;28;20452;-66
2021/07/21 07:22:07;;;;;;;1.70;1.70;;;18.80;98.00;;;;;;5107240;28;20455;-66
2021/07/21 07:24:34;;;;;;;1.40;1.20;;;19.10;98.00;;;;;;5089566;28;20576;-67
2021/07/21 07:27:01;;;;;;;1.70;1.53;;;19.60;98.00;;;;;;5095023;28;20488;-67
2021/07/21 07:29:28;;;;;;;2.23;1.30;;;20.00;98.00;;;;;;5100084;28;20466;-67
2021/07/21 07:31:58;;;;;;;2.03;1.83;;;20.20;98.00;;;;;;5091869;28;20934;-67
2021/07/21 07:34:25;;;;;;;2.70;1.67;;;20.40;98.00;;;;;;5075400;28;20589;-67
2021/07/21 07:36:56;;;;;;;3.20;2.43;;;20.50;98.00;;;;;;5086913;28;20455;-67
2021/07/21 07:39:25;;;;;;;1.60;1.50;;;20.50;98.00;;;;;;5104126;28;20479;-67
2021/07/21 07:41:52;;;;;;;2.17;1.80;;;20.70;98.00;;;;;;5106932;28;20866;-67
2021/07/21 07:44:19;;;;;;;3.03;1.83;;;20.80;98.00;;;;;;5103627;28;21036;-67
2021/07/21 07:46:46;;;;;;;2.63;1.57;;;20.90;98.00;;;;;;5094095;28;20517;-66
2021/07/21 07:49:13;;;;;;;2.43;1.63;;;20.80;98.00;;;;;;5097570;28;20527;-68
2021/07/21 07:51:40;;;;;;;1.73;1.20;;;20.70;98.00;;;;;;5107460;28;20455;-67
2021/07/21 07:54:07;;;;;;;3.60;1.67;;;20.70;98.00;;;;;;5107439;28;20663;-67
2021/07/21 07:56:36;;;;;;;2.53;2.03;;;20.80;98.00;;;;;;5104244;28;20491;-67
2021/07/21 07:59:03;;;;;;;2.00;1.70;;;20.80;98.00;;;;;;5099606;28;20448;-67
2021/07/21 08:01:30;;;;;;;1.90;1.63;;;20.80;98.00;;;;;;5090392;28;20487;-66
2021/07/21 08:03:58;;;;;;;1.77;1.50;;;20.90;98.00;;;;;;5090580;28;20531;-67
2021/07/21 08:06:25;;;;;;;2.30;2.07;;;21.00;98.00;;;;;;5093218;28;21028;-67
2021/07/21 08:08:52;;;;;;;2.37;1.50;;;21.00;98.00;;;;;;5107829;28;20592;-66
2021/07/21 08:11:20;;;;;;;1.80;1.50;;;21.00;98.00;;;;;;5097896;28;20467;-67
2021/07/21 08:13:53;;;;;;;2.40;2.10;;;21.00;98.00;;;;;;5107619;28;20495;-69
2021/07/21 08:16:20;;;;;;;2.60;1.73;;;21.10;98.00;;;;;;5103404;28;20505;-68
2021/07/21 08:18:47;;;;;;;1.70;1.40;;;21.20;98.00;;;;;;5093542;28;20489;-70
2021/07/21 08:21:14;;;;;;;3.43;2.10;;;21.40;98.00;;;;;;5098176;28;20462;-69
2021/07/21 08:23:41;;;;;;;1.90;1.77;;;21.50;98.00;;;;;;5102605;28;20554;-67
2021/07/21 08:26:08;;;;;;;2.23;2.03;;;21.60;98.00;;;;;;5101556;28;20498;-68
2021/07/21 08:28:38;;;;;;;1.97;1.50;;;21.70;98.00;;;;;;5103922;28;21135;-71
2021/07/21 08:31:06;;;;;;;4.80;1.90;;;21.80;98.00;;;;;;5099966;28;20868;-70
2021/07/21 08:33:34;;;;;;;1.73;1.70;;;22.00;98.00;;;;;;5100803;28;20551;-69
2021/07/21 08:36:01;;;;;;;2.20;1.60;;;22.10;98.00;;;;;;5105016;28;20457;-69
2021/07/21 08:38:28;;;;;;;2.80;1.90;;;22.20;98.00;;;;;;5092408;28;20539;-69
2021/07/21 08:40:58;;;;;;;1.53;1.27;;;22.30;97.70;;;;;;5105027;28;20513;-69
2021/07/21 08:43:26;;;;;;;2.80;1.80;;;22.40;98.00;;;;;;5099412;28;20529;-70
2021/07/21 08:45:56;;;;;;;2.37;1.63;;;22.40;98.00;;;;;;5090119;28;20879;-70
2021/07/21 08:48:25;;;;;;;2.73;2.10;;;22.50;98.00;;;;;;5098667;28;20463;-68
2021/07/21 08:50:53;;;;;;;2.47;1.60;;;22.70;97.80;;;;;;5105063;28;20544;-69
2021/07/21 08:53:20;;;;;;;3.90;2.30;;;22.70;96.20;;;;;;5085037;28;20544;-69
2021/07/21 08:55:50;;;;;;;2.63;1.70;;;22.80;95.00;;;;;;5092082;28;20512;-71
2021/07/21 08:58:20;;;;;;;2.33;1.80;;;22.80;96.10;;;;;;5095257;28;20463;-69
2021/07/21 09:00:50;;;;;;;2.03;1.53;;;22.90;94.90;;;;;;5099123;28;20452;-69
2021/07/21 09:03:18;;;;;;;2.17;1.53;;;23.00;96.30;;;;;;5101297;28;20886;-69
2021/07/21 09:05:48;;;;;;;3.10;2.10;;;23.20;95.80;;;;;;5089804;28;20460;-68
2021/07/21 09:08:15;;;;;;;2.60;1.93;;;23.30;95.30;;;;;;5091815;28;20455;-68
2021/07/21 09:10:45;;;;;;;1.87;1.70;;;23.50;94.90;;;;;;5103661;28;20484;-68
2021/07/21 09:13:14;;;;;;;4.13;1.87;;;23.60;94.20;;;;;;5093162;28;20461;-69
2021/07/21 09:15:43;;;;;;;1.80;1.37;;;23.80;90.90;;;;;;5106024;28;20521;-70
2021/07/21 09:18:12;;;;;;;1.90;1.63;;;23.70;91.30;;;;;;5104894;28;20459;-70
2021/07/21 09:20:41;;;;;;;2.13;1.90;;;23.80;91.00;;;;;;5100872;28;20961;-68
2021/07/21 09:23:12;;;;;;;2.70;1.83;;;23.90;92.60;;;;;;5093151;28;20459;-72
2021/07/21 09:25:41;;;;;;;2.40;1.77;;;24.10;92.90;;;;;;5100372;28;20534;-71
2021/07/21 09:28:11;;;;;;;2.50;1.77;;;24.10;93.20;;;;;;5093081;28;20460;-70
2021/07/21 09:30:40;;;;;;;3.70;2.13;;;24.30;91.30;;;;;;5098051;28;20516;-71
2021/07/21 09:33:09;;;;;;;3.30;1.77;;;24.40;90.60;;;;;;5110376;28;20543;-71
2021/07/21 09:35:38;;;;;;;1.60;1.43;;;24.40;92.00;;;;;;5110385;28;20562;-70
2021/07/21 09:38:08;;;;;;;2.80;1.90;;;24.50;90.30;;;;;;5102003;28;20494;-70
2021/07/21 09:40:41;;;;;;;2.67;1.80;;;24.60;91.80;;;;;;5110150;28;20528;-71
2021/07/21 09:43:13;;;;;;;2.97;1.97;;;24.60;89.90;;;;;;5110540;28;20454;-71
2021/07/21 09:45:41;;;;;;;2.13;1.77;;;24.80;88.20;;;;;;5109952;28;20455;-71
2021/07/21 09:48:08;;;;;;;4.20;2.33;;;24.90;88.60;;;;;;5103695;28;21018;-69
2021/07/21 09:50:37;;;;;;;3.77;1.97;;;25.00;89.30;;;;;;5095599;28;20533;-69
2021/07/21 09:53:08;;;;;;;2.07;1.93;;;25.10;88.90;;;;;;5108936;28;20530;-68
2021/07/21 09:55:36;;;;;;;2.50;1.77;;;25.20;89.40;;;;;;5102824;28;20942;-70
2021/07/21 09:58:11;;;;;;;3.50;2.10;;;25.40;86.20;;;;;;5092475;28;20460;-69
2021/07/21 10:00:40;;;;;;;1.73;1.70;;;25.60;84.30;;;;;;5092259;28;20455;-70
2021/07/21 10:03:11;;;;;;;1.80;1.50;;;25.60;87.60;;;;;;5109969;28;20455;-70
2021/07/21 10:05:55;;;;;;;3.10;1.93;;;25.70;89.40;;;;;;5100438;28;20484;-70
2021/07/21 10:08:43;;;;;;;2.80;1.73;;;26.00;86.30;;;;;;5091518;28;20601;-71
2021/07/21 10:11:25;;;;;;;2.90;1.93;;;26.10;82.60;;;;;;5092834;28;20543;-71
2021/07/21 10:13:57;;;;;;;2.93;2.20;;;26.00;83.10;;;;;;5106083;28;20498;-71
2021/07/21 10:16:40;;;;;;;3.50;2.10;;;26.20;83.30;;;;;;5100901;28;20828;-71
2021/07/21 10:19:10;;;;;;;2.40;2.03;;;26.20;81.80;;;;;;5088972;28;20508;-71
2021/07/21 10:21:38;;;;;;;2.03;1.67;;;26.30;82.80;;;;;;5109343;28;20515;-71
2021/07/21 10:24:08;;;;;;;2.30;1.87;;;26.40;81.50;;;;;;5099107;28;20481;-71
2021/07/21 10:26:36;;;;;;;2.17;1.80;;;26.40;81.90;;;;;;5098741;28;21041;-71
2021/07/21 10:29:06;;;;;;;2.27;1.57;;;26.50;83.00;;;;;;5108392;28;20459;-70
2021/07/21 10:31:35;;;;;;;3.70;2.50;;;26.50;81.30;;;;;;5101257;28;20471;-70
2021/07/21 10:34:03;;;;;;;3.00;2.00;;;26.50;81.70;;;;;;5100961;28;20517;-70
2021/07/21 10:36:31;;;;;;;4.30;1.80;;;26.60;83.90;;;;;;5100032;28;20504;-70
2021/07/21 10:38:59;;;;;;;4.00;2.53;;;26.80;82.00;;;;;;5109641;28;20487;-72
2021/07/21 10:41:30;;;;;;;2.90;1.87;;;26.80;80.00;;;;;;5109532;28;20462;-72
2021/07/21 10:43:59;;;;;;;3.10;2.10;;;26.80;80.80;;;;;;5092081;28;20570;-70
2021/07/21 10:46:37;;;;;;;2.80;2.07;;;27.00;81.70;;;;;;5092106;28;20456;-72
2021/07/21 10:49:22;;;;;;;3.40;2.10;;;27.00;82.40;;;;;;5092128;28;20549;-72
2021/07/21 10:52:47;;;;;;;3.90;2.37;;;27.10;82.50;;;;;;5096003;28;20468;-71
2021/07/21 10:55:21;;;;;;;3.57;2.50;;;27.30;82.30;;;;;;5083233;28;20517;-73
2021/07/21 11:00:39;;;;;;;4.13;2.27;;;27.40;81.60;;;;;;5106390;28;20462;-71
2021/07/21 11:03:20;;;;;;;2.80;1.90;;;27.60;80.50;;;;;;5083254;28;20512;-72
2021/07/21 11:05:57;;;;;;;3.17;2.40;;;27.60;82.00;;;;;;5094199;28;20530;-72
2021/07/21 11:08:27;;;;;;;1.90;1.73;;;27.70;80.50;;;;;;5106687;28;20455;-71
2021/07/21 11:10:55;;;;;;;2.30;2.10;;;27.80;81.40;;;;;;5099538;28;20559;-71
2021/07/21 11:13:41;;;;;;;3.67;2.10;;;28.00;79.40;;;;;;5101932;28;20989;-72
2021/07/21 11:16:38;;;;;;;3.13;2.17;;;28.10;78.60;;;;;;5091811;28;20930;-72
2021/07/21 11:19:41;;;;;;;3.33;1.90;;;28.10;77.40;;;;;;5086393;28;20468;-71
2021/07/21 11:22:11;;;;;;;3.97;2.40;;;27.90;77.80;;;;;;5099327;28;20479;-71
2021/07/21 11:25:16;;;;;;;3.13;1.90;;;27.80;79.60;;;;;;5096718;28;21075;-71
2021/07/21 11:27:45;;;;;;;3.33;1.87;;;28.00;80.80;;;;;;5108185;28;20466;-71
2021/07/21 11:30:32;;;;;;;3.10;1.97;;;28.10;78.10;;;;;;5104934;28;20871;-71
2021/07/21 11:33:19;;;;;;;4.37;2.60;;;28.40;80.50;;;;;;5096951;28;21014;-71
2021/07/21 11:35:48;;;;;;;3.27;2.10;;;28.60;78.50;;;;;;5091075;28;20561;-70
2021/07/21 11:38:48;;;;;;;4.67;3.30;;;28.80;77.60;;;;;;5099937;28;20533;-70
2021/07/21 11:41:48;;;;;;;3.97;2.40;;;29.00;76.80;;;;;;5093831;28;20487;-73
2021/07/21 11:44:23;;;;;;;2.70;2.00;;;29.30;76.70;;;;;;5097714;28;20483;-71
2021/07/21 11:46:50;;;;;;;6.73;2.57;;;29.50;77.20;;;;;;5099983;28;20469;-71
2021/07/21 11:49:20;;;;;;;4.37;2.70;;;29.60;74.70;;;;;;5097186;28;20559;-74
2021/07/21 11:51:52;;;;;;;4.80;2.40;;;29.70;73.60;;;;;;5098664;28;20446;-72
2021/07/21 11:54:22;;;;;;;2.70;2.33;;;29.70;74.20;;;;;;5089005;28;20509;-72
2021/07/21 11:56:51;;;;;;;2.80;2.17;;;29.60;75.10;;;;;;5098952;28;20541;-72
2021/07/21 11:59:30;;;;;;;3.60;2.30;;;29.50;75.90;;;;;;5089872;28;20488;-72
2021/07/21 12:02:06;;;;;;;3.63;2.03;;;29.60;74.40;;;;;;5091570;28;20930;-72
2021/07/21 12:04:47;;;;;;;2.50;1.93;;;29.60;76.90;;;;;;5097546;28;20487;-72
2021/07/21 12:07:15;;;;;;;4.50;2.33;;;29.40;77.10;;;;;;5093123;28;20463;-71
2021/07/21 12:09:45;;;;;;;2.60;2.00;;;28.80;77.80;;;;;;5098212;28;20459;-70
2021/07/21 12:12:13;;;;;;;6.50;3.00;;;28.30;77.70;;;;;;5112034;28;20501;-72
2021/07/21 12:14:42;;;;;;;7.23;2.40;;;28.30;79.60;;;;;;5111842;28;20505;-72
2021/07/21 12:17:11;;;;;;;3.57;2.43;;;28.60;77.90;;;;;;5112100;28;20451;-72
2021/07/21 12:19:39;;;;;;;3.40;1.77;;;28.80;77.00;;;;;;5112106;28;21109;-71
2021/07/21 12:22:09;;;;;;;3.20;2.37;;;29.00;78.30;;;;;;5111966;28;20500;-72
2021/07/21 12:24:38;;;;;;;3.87;2.47;;;29.00;77.80;;;;;;5111887;28;20483;-71
2021/07/21 12:27:07;;;;;;;2.77;1.93;;;29.00;77.20;;;;;;5110850;28;20504;-71
2021/07/21 12:29:35;;;;;;;2.23;2.10;;;29.10;76.20;;;;;;5111909;28;20508;-70
2021/07/21 12:32:10;;;;;;;6.90;2.23;;;29.40;78.20;;;;;;5112017;28;20877;-71
2021/07/21 12:34:39;;;;;;;3.67;2.63;;;29.80;76.30;;;;;;5112206;28;20454;-71
2021/07/21 12:37:08;;;;;;;3.20;2.70;;;30.10;76.20;;;;;;5112083;28;20451;-71
2021/07/21 12:39:35;;;;;;;4.30;2.37;;;30.00;74.20;;;;;;5111915;28;20459;-71
2021/07/21 12:42:18;;;;;;;5.57;2.63;;;30.20;75.70;;;;;;5111952;28;20455;-71
2021/07/21 12:44:47;;;;;;;3.83;2.30;;;30.50;74.10;;;;;;5112121;28;21007;-71
2021/07/21 12:47:17;;;;;;;4.07;2.03;;;30.70;73.80;;;;;;5112146;28;20551;-71
2021/07/21 12:49:46;;;;;;;2.97;2.10;;;30.70;74.20;;;;;;5113744;28;20459;-71
2021/07/21 12:52:17;;;;;;;3.53;2.50;;;30.50;73.90;;;;;;5116040;28;20467;-71
2021/07/21 12:54:49;;;;;;;3.17;2.20;;;30.10;75.00;;;;;;5116287;28;20482;-71
2021/07/21 12:57:32;;;;;;;4.47;2.30;;;29.90;75.30;;;;;;5115465;27;20539;-71
2021/07/21 13:00:03;;;;;;;3.80;2.50;;;30.00;74.00;;;;;;5115810;28;20818;-71
2021/07/21 13:02:31;;;;;;;2.60;1.93;;;30.00;73.90;;;;;;5115306;28;20459;-71
2021/07/21 13:04:59;;;;;;;2.53;2.20;;;30.20;76.40;;;;;;5115808;28;20984;-71
2021/07/21 13:07:27;;;;;;;3.90;2.53;;;30.40;75.70;;;;;;5115511;28;20451;-71